Time;durP1;ratioP1;P1;durP2;ratioP2;P2;SDS_P1;SDS_P2;PMS_P1;PMS_P2;Temp;Humidity;BMP_temperature;BMP_pressure;BME280_temperature;BME280_humidity;BME280_pressure;Samples;Min_cycle;Max_cycle;Signal;HPM_P1;HPM_P2
2020/12/30 00:01:26;;;;;;;6.65;2.75;;;;;;;11.61;71.29;98855.88;5070300;28;20101;-72
2020/12/30 00:03:52;;;;;;;6.03;2.70;;;;;;;11.61;70.62;98851.34;5070777;28;20060;-72
2020/12/30 00:06:19;;;;;;;8.15;2.65;;;;;;;11.68;71.45;98861.69;5071186;28;20399;-72
2020/12/30 00:08:48;;;;;;;7.10;3.20;;;;;;;11.68;71.39;98859.00;5073028;28;20075;-72
2020/12/30 00:11:18;;;;;;;8.35;2.28;;;;;;;11.72;71.40;98852.00;5072727;28;20058;-72
2020/12/30 00:13:44;;;;;;;8.45;1.77;;;;;;;11.72;71.14;98853.88;5072948;28;20464;-72
2020/12/30 00:16:10;;;;;;;6.20;2.47;;;;;;;11.80;71.35;98854.06;5073929;28;20035;-72
2020/12/30 00:18:36;;;;;;;6.53;2.70;;;;;;;11.83;71.46;98850.00;5072792;28;20029;-72
2020/12/30 00:21:01;;;;;;;8.45;3.63;;;;;;;11.86;70.96;98860.13;5074048;28;20472;-72
2020/12/30 00:23:26;;;;;;;7.03;3.17;;;;;;;11.84;70.35;98855.06;5073775;28;20194;-72
2020/12/30 00:25:52;;;;;;;6.93;3.05;;;;;;;11.88;71.08;98860.63;5074287;28;20075;-72
2020/12/30 00:28:18;;;;;;;9.77;3.10;;;;;;;11.89;70.45;98867.59;5073976;28;20032;-72
2020/12/30 00:30:44;;;;;;;7.15;3.53;;;;;;;11.89;70.85;98858.75;5072633;28;20021;-72
2020/12/30 00:33:10;;;;;;;10.18;3.67;;;;;;;11.90;70.88;98865.69;5073363;28;20071;-72
2020/12/30 00:35:35;;;;;;;8.60;3.17;;;;;;;11.84;70.42;98852.38;5073855;28;20472;-72
2020/12/30 00:38:01;;;;;;;7.10;2.88;;;;;;;11.85;70.86;98858.53;5072480;28;20032;-72
2020/12/30 00:40:26;;;;;;;17.15;4.28;;;;;;;11.89;70.73;98854.19;5072170;28;20399;-72
2020/12/30 00:42:51;;;;;;;11.55;3.72;;;;;;;11.88;70.82;98862.50;5073630;28;20216;-72
2020/12/30 00:45:17;;;;;;;7.90;3.42;;;;;;;11.83;70.85;98850.78;5073058;28;20492;-72
2020/12/30 00:47:42;;;;;;;12.02;2.95;;;;;;;11.92;71.76;98864.31;5072312;28;20028;-72
2020/12/30 00:50:08;;;;;;;8.25;3.08;;;;;;;11.93;71.34;98857.88;5072216;28;20043;-72
2020/12/30 00:52:34;;;;;;;10.07;3.13;;;;;;;11.94;71.15;98853.34;5073362;28;20024;-73
2020/12/30 00:55:00;;;;;;;3.22;2.22;;;;;;;11.92;70.97;98847.47;5073184;28;20036;-73
2020/12/30 00:57:25;;;;;;;4.38;1.92;;;;;;;11.99;71.24;98855.97;5071889;28;20038;-73
2020/12/30 00:59:50;;;;;;;8.70;2.75;;;;;;;12.00;70.56;98857.56;5073401;28;20060;-73
2020/12/30 01:02:16;;;;;;;6.80;1.90;;;;;;;12.04;71.13;98844.38;5073107;28;20470;-73
2020/12/30 01:04:42;;;;;;;10.13;2.67;;;;;;;12.04;70.69;98842.50;5073293;28;20487;-73
2020/12/30 01:07:08;;;;;;;5.13;1.65;;;;;;;12.08;71.11;98843.50;5073238;28;20103;-73
2020/12/30 01:09:33;;;;;;;4.85;1.65;;;;;;;12.10;70.55;98835.97;5071719;28;20040;-73
2020/12/30 01:12:01;;;;;;;3.38;1.52;;;;;;;12.13;70.76;98834.59;5073170;28;20028;-71
2020/12/30 01:14:27;;;;;;;12.63;1.90;;;;;;;12.16;70.58;98839.38;5072947;28;20039;-72
2020/12/30 01:16:53;;;;;;;7.00;1.35;;;;;;;12.13;70.50;98819.31;5071779;28;20123;-72
2020/12/30 01:19:19;;;;;;;2.63;1.30;;;;;;;12.23;70.67;98828.25;5072817;28;20028;-72
2020/12/30 01:21:45;;;;;;;5.82;1.88;;;;;;;12.26;70.83;98828.47;5073188;28;20028;-72
2020/12/30 01:24:10;;;;;;;2.33;0.80;;;;;;;12.25;70.56;98826.88;5072933;28;20392;-72
2020/12/30 01:26:36;;;;;;;3.72;1.40;;;;;;;12.30;70.66;98823.31;5072815;28;20111;-72
2020/12/30 01:29:03;;;;;;;3.13;1.30;;;;;;;12.33;70.31;98833.47;5071584;28;20036;-72
2020/12/30 01:31:30;;;;;;;4.78;1.50;;;;;;;12.43;70.46;98832.53;5072355;28;20475;-72
2020/12/30 01:33:56;;;;;;;4.70;0.85;;;;;;;12.46;69.90;98829.25;5072700;28;20055;-72
2020/12/30 01:36:21;;;;;;;2.92;1.58;;;;;;;12.46;69.82;98821.19;5071189;28;20025;-71
2020/12/30 01:38:48;;;;;;;1.58;0.95;;;;;;;12.51;69.43;98831.81;5072662;28;20415;-71
2020/12/30 01:41:14;;;;;;;2.75;1.70;;;;;;;12.51;69.53;98826.47;5071110;28;20024;-71
2020/12/30 01:43:39;;;;;;;2.78;1.48;;;;;;;12.53;69.23;98826.97;5071225;28;20035;-71
2020/12/30 01:46:05;;;;;;;4.05;1.75;;;;;;;12.52;69.56;98828.06;5072225;28;20087;-74
2020/12/30 01:48:33;;;;;;;7.82;2.53;;;;;;;12.51;69.17;98825.69;5072214;28;20036;-71
2020/12/30 01:50:59;;;;;;;5.60;1.92;;;;;;;12.49;69.03;98823.31;5072518;28;20044;-73
2020/12/30 01:53:25;;;;;;;4.43;1.55;;;;;;;12.33;68.98;98806.66;5070871;28;20028;-73
2020/12/30 01:55:52;;;;;;;6.00;1.70;;;;;;;12.44;69.46;98820.72;5072041;28;20419;-73
2020/12/30 01:58:18;;;;;;;4.13;1.38;;;;;;;12.39;69.03;98818.91;5070722;28;20031;-73
2020/12/30 02:00:48;;;;;;;3.72;2.05;;;;;;;12.37;68.98;98815.72;5072516;28;20033;-73
2020/12/30 02:03:14;;;;;;;2.53;1.15;;;;;;;12.34;68.98;98816.31;5072039;28;20115;-73
2020/12/30 02:05:42;;;;;;;6.82;1.67;;;;;;;12.31;69.44;98817.66;5070859;28;20021;-73
2020/12/30 02:08:08;;;;;;;10.43;2.22;;;;;;;12.26;69.33;98815.06;5072072;28;20100;-73
2020/12/30 02:10:34;;;;;;;3.72;1.95;;;;;;;12.25;69.25;98821.53;5070522;28;20419;-73
2020/12/30 02:13:00;;;;;;;12.32;3.05;;;;;;;12.23;69.22;98818.34;5070693;28;20030;-73
2020/12/30 02:15:32;;;;;;;11.32;4.03;;;;;;;12.19;69.05;98805.81;5071970;28;20025;-73
2020/12/30 02:17:59;;;;;;;11.13;3.83;;;;;;;12.21;69.29;98814.38;5071902;28;20058;-73
2020/12/30 02:20:25;;;;;;;4.15;2.22;;;;;;;12.19;69.46;98820.00;5071547;28;20032;-73
2020/12/30 02:23:03;;;;;;;7.90;3.08;;;;;;;12.17;69.40;98820.31;5070394;28;20021;-73
2020/12/30 02:25:29;;;;;;;6.55;2.28;;;;;;;12.04;69.30;98810.31;5071841;28;20052;-73
2020/12/30 02:27:54;;;;;;;8.18;3.88;;;;;;;12.04;69.97;98814.91;5071291;28;20060;-73
2020/12/30 02:30:19;;;;;;;16.98;5.40;;;;;;;12.00;69.66;98803.97;5070148;28;20452;-73
2020/12/30 02:32:46;;;;;;;18.10;6.95;;;;;;;11.94;69.52;98807.78;5070196;28;20439;-73
2020/12/30 02:35:12;;;;;;;7.72;3.90;;;;;;;11.85;70.18;98808.44;5070506;28;20404;-73
2020/12/30 02:37:37;;;;;;;18.02;6.80;;;;;;;11.85;69.59;98808.44;5069974;28;20028;-73
2020/12/30 02:40:04;;;;;;;23.48;8.32;;;;;;;11.77;70.34;98806.38;5071217;28;20025;-73
2020/12/30 02:42:30;;;;;;;9.88;4.35;;;;;;;11.74;70.29;98796.25;5069813;28;20035;-73
2020/12/30 02:45:01;;;;;;;9.25;4.28;;;;;;;11.73;70.47;98793.84;5070086;28;20020;-73
2020/12/30 02:47:27;;;;;;;9.27;3.15;;;;;;;11.64;70.60;98781.09;5070873;28;20545;-73
2020/12/30 02:49:52;;;;;;;11.40;2.80;;;;;;;11.65;71.04;98798.78;5070032;28;20025;-73
2020/12/30 02:52:18;;;;;;;7.05;2.15;;;;;;;11.61;71.52;98780.88;5071372;28;20056;-73
2020/12/30 02:54:43;;;;;;;10.25;2.10;;;;;;;11.66;71.06;98794.22;5070005;28;20024;-70
2020/12/30 02:57:08;;;;;;;5.53;2.50;;;;;;;11.65;70.97;98790.75;5071555;28;20112;-72
2020/12/30 02:59:34;;;;;;;5.05;2.10;;;;;;;11.65;71.26;98795.31;5070977;28;20028;-73
2020/12/30 03:01:59;;;;;;;8.07;2.67;;;;;;;11.63;71.31;98784.91;5069927;28;20031;-73
2020/12/30 03:04:24;;;;;;;6.95;2.17;;;;;;;11.53;70.73;98768.94;5070690;28;20024;-73
2020/12/30 03:06:50;;;;;;;6.97;1.95;;;;;;;11.60;70.72;98784.69;5071186;28;20025;-73
2020/12/30 03:09:15;;;;;;;4.50;2.20;;;;;;;11.63;70.68;98798.28;5069886;28;20043;-73
2020/12/30 03:11:40;;;;;;;7.05;1.98;;;;;;;11.57;70.99;98787.91;5070591;28;20488;-73
2020/12/30 03:14:06;;;;;;;3.17;2.13;;;;;;;11.56;71.34;98789.00;5069798;28;20063;-73
2020/12/30 03:16:31;;;;;;;4.07;2.50;;;;;;;11.49;71.21;98794.72;5070838;28;20059;-73
2020/12/30 03:18:57;;;;;;;7.25;2.03;;;;;;;11.47;71.90;98795.00;5069687;28;20027;-73
2020/12/30 03:21:22;;;;;;;7.28;2.10;;;;;;;11.45;71.21;98793.69;5070726;28;20462;-73
2020/12/30 03:23:47;;;;;;;7.22;2.28;;;;;;;11.38;71.74;98780.66;5070673;28;20021;-71
2020/12/30 03:26:14;;;;;;;9.23;3.45;;;;;;;11.32;71.49;98773.78;5070987;28;20059;-71
2020/12/30 03:28:40;;;;;;;2.72;1.55;;;;;;;11.23;71.82;98767.47;5070663;28;20111;-71
2020/12/30 03:31:05;;;;;;;9.85;1.85;;;;;;;11.20;71.77;98777.69;5070886;28;20116;-71
2020/12/30 03:33:30;;;;;;;7.40;1.60;;;;;;;11.13;72.88;98776.41;5070384;28;20516;-71
2020/12/30 03:35:56;;;;;;;5.75;2.05;;;;;;;11.05;72.93;98780.53;5069542;28;20063;-71
2020/12/30 03:38:21;;;;;;;6.75;1.92;;;;;;;10.95;73.25;98770.75;5069290;28;20025;-71
2020/12/30 03:40:47;;;;;;;5.75;1.70;;;;;;;10.89;73.52;98759.28;5070986;28;20131;-71
2020/12/30 03:43:12;;;;;;;9.25;1.67;;;;;;;10.89;73.99;98782.59;5074792;28;20025;-71
2020/12/30 03:45:37;;;;;;;5.85;1.35;;;;;;;10.84;74.00;98786.09;5074310;28;20104;-71
2020/12/30 03:48:03;;;;;;;4.90;2.33;;;;;;;10.82;74.16;98779.44;5074443;28;20033;-71
2020/12/30 03:50:28;;;;;;;7.53;1.80;;;;;;;10.80;74.25;98781.59;5074380;28;20476;-71
2020/12/30 03:52:53;;;;;;;4.90;2.53;;;;;;;10.75;74.41;98773.63;5073423;28;20037;-71
2020/12/30 03:55:19;;;;;;;4.38;1.77;;;;;;;10.77;74.61;98772.28;5074630;28;20078;-71
2020/12/30 03:57:44;;;;;;;5.35;2.35;;;;;;;10.68;74.51;98761.41;5074661;28;20035;-71
2020/12/30 04:00:10;;;;;;;3.83;1.85;;;;;;;10.70;74.49;98755.75;5073241;28;20032;-71
2020/12/30 04:02:35;;;;;;;3.15;2.95;;;;;;;10.71;74.13;98752.00;5074151;28;20052;-71
2020/12/30 04:05:00;;;;;;;6.72;2.58;;;;;;;10.77;74.08;98766.13;5074224;28;20021;-71
2020/12/30 04:07:26;;;;;;;4.47;2.70;;;;;;;10.76;74.22;98746.59;5072478;28;20025;-71
2020/12/30 04:09:51;;;;;;;8.02;3.05;;;;;;;10.80;74.60;98741.47;5073979;28;20099;-71
2020/12/30 04:12:16;;;;;;;5.70;3.40;;;;;;;10.80;74.16;98736.13;5074519;28;20024;-71
2020/12/30 04:14:42;;;;;;;7.32;3.33;;;;;;;10.84;74.52;98742.50;5073994;28;20072;-71
2020/12/30 04:17:07;;;;;;;7.82;3.42;;;;;;;10.85;74.09;98736.88;5073884;28;20425;-71
2020/12/30 04:19:32;;;;;;;6.63;3.80;;;;;;;10.91;74.50;98742.16;5072522;28;20028;-71
2020/12/30 04:21:58;;;;;;;6.68;3.95;;;;;;;10.92;74.18;98751.78;5074136;28;20460;-71
2020/12/30 04:24:23;;;;;;;11.77;3.55;;;;;;;10.96;73.79;98750.94;5072381;28;20029;-70
2020/12/30 04:26:49;;;;;;;5.05;2.30;;;;;;;11.00;73.84;98748.50;5072698;28;20384;-71
2020/12/30 04:29:14;;;;;;;6.65;3.47;;;;;;;11.01;73.79;98753.53;5074102;28;20396;-71
2020/12/30 04:31:39;;;;;;;11.10;4.30;;;;;;;10.99;74.01;98746.88;5072084;28;20031;-71
2020/12/30 04:34:05;;;;;;;8.77;3.00;;;;;;;11.09;73.78;98754.78;5072332;28;20080;-72
2020/12/30 04:36:31;;;;;;;7.47;3.92;;;;;;;11.13;73.70;98761.16;5072352;28;20050;-73
2020/12/30 04:38:56;;;;;;;10.82;4.25;;;;;;;11.11;73.40;98762.50;5073478;28;20024;-71
2020/12/30 04:41:36;;;;;;;4.72;2.47;;;;;;;11.20;73.85;98764.31;5072473;28;20032;-73
2020/12/30 04:44:04;;;;;;;8.35;2.13;;;;;;;11.21;73.43;98754.38;5072412;28;20343;-73
2020/12/30 04:46:29;;;;;;;7.00;2.10;;;;;;;11.19;73.33;98749.31;5073473;28;20027;-71
2020/12/30 04:48:59;;;;;;;6.60;2.65;;;;;;;11.24;73.22;98745.75;5072318;28;20484;-71
2020/12/30 04:51:26;;;;;;;9.25;2.00;;;;;;;11.27;73.50;98758.59;5071602;28;20044;-74
2020/12/30 04:53:57;;;;;;;6.10;2.47;;;;;;;11.28;73.59;98759.38;5072174;28;20055;-71
2020/12/30 04:56:56;;;;;;;4.68;1.35;;;;;;;11.31;73.59;98761.47;5072180;28;20024;-71
2020/12/30 04:59:25;;;;;;;2.58;2.05;;;;;;;11.26;72.80;98753.53;5068080;28;20037;-73
2020/12/30 05:02:02;;;;;;;5.30;1.80;;;;;;;11.34;72.97;98766.28;5072168;28;20495;-71
2020/12/30 05:04:29;;;;;;;4.57;2.20;;;;;;;11.21;72.99;98746.34;5073135;28;20559;-71
2020/12/30 05:06:58;;;;;;;8.15;1.88;;;;;;;11.28;73.04;98752.16;5072014;28;20052;-71
2020/12/30 05:09:26;;;;;;;6.68;1.88;;;;;;;11.39;73.02;98768.88;5071932;28;20039;-71
2020/12/30 05:11:51;;;;;;;5.70;2.20;;;;;;;11.43;73.48;98769.09;5073236;28;20419;-71
2020/12/30 05:14:16;;;;;;;5.25;1.95;;;;;;;11.39;73.37;98758.16;5073418;28;20035;-71
2020/12/30 05:16:42;;;;;;;5.82;2.38;;;;;;;11.46;72.97;98774.69;5071549;28;20174;-72
2020/12/30 05:19:07;;;;;;;6.65;2.80;;;;;;;11.43;72.89;98761.06;5071833;28;20067;-71
2020/12/30 05:21:33;;;;;;;6.40;3.67;;;;;;;11.46;72.80;98773.88;5071426;28;20427;-73
2020/12/30 05:23:58;;;;;;;9.65;4.07;;;;;;;11.42;72.88;98779.00;5072965;28;20112;-71
2020/12/30 05:26:24;;;;;;;7.25;3.78;;;;;;;11.46;72.92;98774.69;5071614;28;20504;-71
2020/12/30 05:28:53;;;;;;;6.90;3.33;;;;;;;11.46;72.97;98781.91;5071264;28;20032;-71
2020/12/30 05:31:18;;;;;;;12.63;4.57;;;;;;;11.44;72.92;98776.84;5071410;28;20513;-71
2020/12/30 05:33:44;;;;;;;8.52;4.15;;;;;;;11.42;73.05;98787.03;5070901;28;20040;-73
2020/12/30 05:36:10;;;;;;;9.48;3.97;;;;;;;11.38;73.06;98772.63;5072920;28;20059;-71
2020/12/30 05:38:36;;;;;;;10.35;4.22;;;;;;;11.34;73.01;98783.13;5072208;28;20025;-71
2020/12/30 05:41:02;;;;;;;10.13;3.95;;;;;;;11.35;73.13;98784.72;5072508;28;20528;-73
2020/12/30 05:43:27;;;;;;;8.20;4.93;;;;;;;11.37;73.35;98782.53;5070950;28;20119;-71
2020/12/30 05:45:54;;;;;;;17.73;6.28;;;;;;;11.38;73.29;98789.47;5071141;28;20059;-71
2020/12/30 05:48:21;;;;;;;9.95;3.25;;;;;;;11.37;73.64;98793.25;5072492;28;20399;-72
2020/12/30 05:50:57;;;;;;;10.98;4.78;;;;;;;11.41;73.51;98803.41;5072138;28;20063;-73
2020/12/30 05:53:24;;;;;;;11.30;4.70;;;;;;;11.42;73.20;98813.03;5071043;28;20419;-71
2020/12/30 05:55:51;;;;;;;8.43;5.07;;;;;;;11.43;73.31;98807.38;5072068;28;20029;-71
2020/12/30 05:58:18;;;;;;;11.18;4.53;;;;;;;11.45;72.89;98813.25;5070967;28;20449;-71
2020/12/30 06:00:46;;;;;;;11.35;4.32;;;;;;;11.41;73.34;98792.69;5071769;28;20080;-71
2020/12/30 06:03:13;;;;;;;18.10;5.15;;;;;;;11.44;73.03;98805.50;5070081;28;20035;-71
2020/12/30 06:05:38;;;;;;;9.20;4.30;;;;;;;11.45;73.42;98799.03;5071857;28;20028;-71
2020/12/30 06:08:04;;;;;;;9.05;4.70;;;;;;;11.45;73.35;98799.03;5070748;28;20487;-71
2020/12/30 06:10:31;;;;;;;10.70;3.65;;;;;;;11.45;72.95;98793.69;5071757;28;20024;-72
2020/12/30 06:12:58;;;;;;;14.70;3.45;;;;;;;11.41;72.68;98798.03;5070577;28;20029;-72
2020/12/30 06:15:26;;;;;;;12.60;4.85;;;;;;;11.43;72.48;98799.34;5070615;28;20025;-72
2020/12/30 06:17:55;;;;;;;10.93;3.75;;;;;;;11.44;72.73;98805.50;5070333;28;20086;-72
2020/12/30 06:20:26;;;;;;;7.40;4.00;;;;;;;11.40;73.17;98788.41;5072033;28;20122;-72
2020/12/30 06:22:56;;;;;;;13.65;4.60;;;;;;;11.43;72.96;98802.03;5071424;28;20028;-72
2020/12/30 06:25:24;;;;;;;14.05;5.60;;;;;;;11.40;73.41;98802.59;5070556;28;20217;-72
2020/12/30 06:27:50;;;;;;;10.77;4.60;;;;;;;11.37;72.72;98806.63;5071461;28;20044;-72
2020/12/30 06:30:16;;;;;;;12.77;6.18;;;;;;;11.45;73.02;98815.09;5071600;28;20029;-72
2020/12/30 06:32:42;;;;;;;18.67;5.70;;;;;;;11.46;73.18;98819.38;5069846;28;20024;-72
2020/12/30 06:35:08;;;;;;;15.13;6.13;;;;;;;11.45;73.26;98807.06;5069932;28;20033;-72
2020/12/30 06:37:35;;;;;;;15.07;5.55;;;;;;;11.42;73.41;98802.31;5071305;28;20090;-71
2020/12/30 06:40:29;;;;;;;12.07;5.43;;;;;;;11.48;72.96;98807.31;5071429;28;20043;-72
2020/12/30 06:42:59;;;;;;;8.68;4.18;;;;;;;11.49;73.44;98814.25;5069917;28;20032;-71
2020/12/30 06:45:43;;;;;;;7.85;4.53;;;;;;;11.49;73.72;98811.56;5071335;28;20071;-71
2020/12/30 06:48:15;;;;;;;8.77;4.38;;;;;;;11.50;73.45;98807.81;5071387;28;20021;-72
2020/12/30 06:50:41;;;;;;;9.70;5.13;;;;;;;11.52;73.96;98804.84;5071040;28;20024;-72
2020/12/30 06:53:21;;;;;;;6.20;4.07;;;;;;;11.57;73.89;98809.34;5071343;28;20486;-72
2020/12/30 06:55:47;;;;;;;11.35;4.53;;;;;;;11.60;73.67;98804.22;5070671;28;20025;-72
2020/12/30 06:58:46;;;;;;;14.23;5.80;;;;;;;11.69;73.88;98807.84;5070019;28;20134;-72
2020/12/30 07:01:12;;;;;;;9.70;4.95;;;;;;;11.78;74.00;98805.31;5066949;28;20032;-72
2020/12/30 07:03:39;;;;;;;8.45;4.95;;;;;;;11.89;73.38;98797.94;5070879;28;20035;-72
2020/12/30 07:06:24;;;;;;;7.57;4.35;;;;;;;12.03;73.17;98797.22;5071207;28;20032;-72
2020/12/30 07:08:51;;;;;;;14.35;5.10;;;;;;;12.14;72.93;98790.59;5070811;28;20020;-72
2020/12/30 07:11:38;;;;;;;10.45;4.57;;;;;;;12.27;72.35;98802.47;5070792;28;20028;-73
2020/12/30 07:14:11;;;;;;;8.45;4.90;;;;;;;12.40;72.62;98800.91;5069499;28;20053;-72
2020/12/30 07:16:38;;;;;;;11.60;5.30;;;;;;;12.53;72.16;98797.47;5070700;28;20021;-72
2020/12/30 07:19:11;;;;;;;12.73;4.72;;;;;;;12.65;72.18;98795.09;5070755;28;20210;-72
2020/12/30 07:21:55;;;;;;;9.80;4.68;;;;;;;12.80;71.51;98794.06;5069293;28;20055;-72
2020/12/30 07:24:23;;;;;;;9.52;3.80;;;;;;;12.93;71.01;98789.00;5069524;28;20115;-72
2020/12/30 07:26:52;;;;;;;8.35;4.13;;;;;;;13.04;70.78;98798.44;5069377;28;20066;-72
2020/12/30 07:29:17;;;;;;;7.35;3.90;;;;;;;13.17;70.50;98798.72;5069482;28;20028;-72
2020/12/30 07:31:48;;;;;;;10.70;3.90;;;;;;;13.22;70.05;98787.88;5069347;28;20373;-72
2020/12/30 07:34:24;;;;;;;8.93;3.78;;;;;;;13.36;69.71;98809.38;5070892;28;20097;-72
2020/12/30 07:36:50;;;;;;;8.35;3.50;;;;;;;13.44;69.46;98809.47;5069288;28;20048;-72
2020/12/30 07:39:21;;;;;;;6.25;2.72;;;;;;;13.53;69.17;98811.47;5071015;28;20052;-72
2020/12/30 07:41:46;;;;;;;7.45;3.17;;;;;;;13.63;68.92;98813.91;5070286;28;20064;-72
2020/12/30 07:44:12;;;;;;;9.20;2.78;;;;;;;13.72;68.57;98816.69;5069109;28;20572;-72
2020/12/30 07:46:38;;;;;;;4.22;2.60;;;;;;;13.82;67.81;98807.59;5070104;28;20036;-72
2020/12/30 07:49:15;;;;;;;9.25;2.50;;;;;;;13.86;67.32;98812.06;5069391;28;20056;-72
2020/12/30 07:51:52;;;;;;;7.80;2.70;;;;;;;13.91;66.72;98795.03;5070461;28;20085;-72
2020/12/30 07:54:20;;;;;;;5.13;2.15;;;;;;;14.02;66.94;98809.81;5070336;28;20040;-72
2020/12/30 07:56:46;;;;;;;6.88;3.17;;;;;;;14.11;66.77;98801.84;5069090;28;20028;-72
2020/12/30 07:59:21;;;;;;;5.32;2.42;;;;;;;14.13;66.36;98791.56;5069254;28;20028;-72
2020/12/30 08:02:16;;;;;;;2.83;2.15;;;;;;;14.24;65.83;98809.06;5068660;28;20020;-72
2020/12/30 08:04:44;;;;;;;4.82;1.70;;;;;;;14.24;65.45;98803.69;5061325;28;20075;-72
2020/12/30 08:07:16;;;;;;;8.90;2.00;;;;;;;14.32;64.96;98814.78;5069246;28;20021;-73
2020/12/30 08:09:43;;;;;;;5.20;1.60;;;;;;;14.26;65.11;98789.91;5070489;28;20024;-72
2020/12/30 08:12:14;;;;;;;6.03;2.28;;;;;;;14.41;64.48;98815.66;5069124;28;20119;-72
2020/12/30 08:14:41;;;;;;;5.95;1.95;;;;;;;14.28;64.12;98798.47;5070164;28;20104;-72
2020/12/30 08:17:08;;;;;;;4.63;2.17;;;;;;;14.34;63.70;98799.13;5069085;28;20024;-72
2020/12/30 08:19:51;;;;;;;8.13;2.88;;;;;;;14.47;63.20;98817.09;5070362;28;20058;-72
2020/12/30 08:22:27;;;;;;;6.95;2.15;;;;;;;14.50;63.20;98808.44;5070400;28;20032;-73
2020/12/30 08:24:57;;;;;;;5.50;1.85;;;;;;;14.51;62.66;98799.25;5070144;28;20035;-72
2020/12/30 08:27:24;;;;;;;4.35;2.15;;;;;;;14.45;62.72;98797.78;5072830;28;20024;-72
2020/12/30 08:29:51;;;;;;;5.50;2.47;;;;;;;14.46;62.55;98807.44;5073551;28;20457;-72
2020/12/30 08:32:34;;;;;;;5.18;2.30;;;;;;;14.52;62.95;98800.03;5073655;28;20035;-72
2020/12/30 08:35:30;;;;;;;4.82;2.75;;;;;;;14.58;61.97;98810.34;5073806;28;20127;-72
2020/12/30 08:38:06;;;;;;;5.05;2.33;;;;;;;14.58;61.77;98791.50;5076672;28;20041;-72
2020/12/30 08:40:36;;;;;;;6.03;2.00;;;;;;;14.67;61.60;98801.56;5074098;28;20075;-72
2020/12/30 08:43:11;;;;;;;3.05;1.77;;;;;;;14.72;61.56;98793.34;5073366;28;20423;-71
2020/12/30 08:45:45;;;;;;;10.00;2.33;;;;;;;14.79;61.24;98796.41;5072177;28;20025;-72
2020/12/30 08:48:17;;;;;;;4.70;1.98;;;;;;;14.80;61.09;98787.22;5073449;28;20040;-74
2020/12/30 08:50:43;;;;;;;4.38;2.00;;;;;;;14.91;60.80;98801.22;5073077;28;20036;-74
2020/12/30 08:53:09;;;;;;;2.95;1.98;;;;;;;14.91;60.49;98776.97;5072221;28;20495;-73
2020/12/30 08:55:34;;;;;;;4.88;1.98;;;;;;;14.98;60.51;98782.72;5073565;28;20035;-73
2020/12/30 08:58:00;;;;;;;3.28;1.92;;;;;;;14.97;59.93;98775.72;5072922;28;20017;-72
2020/12/30 09:00:32;;;;;;;5.20;1.77;;;;;;;14.99;60.21;98770.03;5072090;28;20024;-72
2020/12/30 09:03:11;;;;;;;7.20;2.20;;;;;;;14.99;60.40;98767.31;5073045;28;20086;-74
2020/12/30 09:05:37;;;;;;;3.95;1.45;;;;;;;15.04;59.72;98769.91;5073451;28;20031;-74
2020/12/30 09:08:29;;;;;;;5.47;1.83;;;;;;;15.08;60.32;98772.78;5073313;28;20568;-72
2020/12/30 09:10:55;;;;;;;3.05;1.70;;;;;;;15.09;59.75;98777.03;5069345;28;20036;-74
2020/12/30 09:13:23;;;;;;;4.03;1.38;;;;;;;15.05;60.27;98752.66;5071952;28;20059;-73
2020/12/30 09:15:54;;;;;;;5.77;2.17;;;;;;;15.10;60.27;98770.53;5072611;28;20024;-74
2020/12/30 09:18:22;;;;;;;7.40;2.00;;;;;;;15.14;60.17;98760.75;5071757;28;20035;-74
2020/12/30 09:20:47;;;;;;;4.00;2.20;;;;;;;15.18;60.06;98756.31;5072766;28;20091;-73
2020/12/30 09:23:13;;;;;;;3.85;1.48;;;;;;;15.15;59.64;98762.34;5071588;28;20053;-73
2020/12/30 09:25:40;;;;;;;2.88;1.77;;;;;;;15.18;59.62;98764.38;5071581;28;20027;-72
2020/12/30 09:28:20;;;;;;;5.13;1.63;;;;;;;15.25;59.05;98764.72;5071552;28;20024;-73
2020/12/30 09:30:47;;;;;;;4.70;1.85;;;;;;;15.28;58.53;98758.72;5072748;28;20040;-72
2020/12/30 09:33:15;;;;;;;5.03;2.00;;;;;;;15.34;58.45;98760.16;5072342;28;20051;-72
2020/12/30 09:35:41;;;;;;;7.22;2.33;;;;;;;15.36;58.60;98757.91;5072899;28;20115;-72
2020/12/30 09:38:06;;;;;;;6.10;1.88;;;;;;;15.39;57.67;98750.31;5070178;28;20494;-73
2020/12/30 09:40:40;;;;;;;5.47;1.50;;;;;;;15.45;58.59;98767.91;5072082;28;20028;-72
2020/12/30 09:43:17;;;;;;;2.45;1.35;;;;;;;15.48;58.47;98751.91;5071044;28;20038;-73
2020/12/30 09:45:43;;;;;;;8.32;1.67;;;;;;;15.46;58.67;98732.56;5072929;28;20025;-74
2020/12/30 09:48:17;;;;;;;6.10;1.48;;;;;;;15.49;58.29;98726.56;5071129;28;20108;-74
2020/12/30 09:50:44;;;;;;;3.15;1.83;;;;;;;15.51;58.48;98727.03;5072169;28;20029;-73
2020/12/30 09:53:10;;;;;;;7.90;2.00;;;;;;;15.50;58.14;98728.16;5072298;28;20025;-74
2020/12/30 09:55:36;;;;;;;7.28;1.75;;;;;;;15.39;57.99;98702.59;5072336;28;20047;-74
2020/12/30 09:58:01;;;;;;;3.95;1.88;;;;;;;15.52;57.20;98712.44;5071975;28;20484;-72
2020/12/30 10:00:27;;;;;;;7.22;1.52;;;;;;;15.51;57.34;98707.38;5070907;28;20439;-72
2020/12/30 10:02:53;;;;;;;6.03;1.58;;;;;;;15.55;56.66;98704.84;5070545;28;20047;-72
2020/12/30 10:05:18;;;;;;;5.50;1.67;;;;;;;15.60;57.16;98708.19;5070736;28;20035;-72
2020/12/30 10:07:44;;;;;;;4.80;1.92;;;;;;;15.62;57.28;98700.53;5070445;28;20028;-72
2020/12/30 10:10:09;;;;;;;4.63;2.22;;;;;;;15.68;56.67;98691.22;5070766;28;20479;-72
2020/12/30 10:12:38;;;;;;;5.95;2.25;;;;;;;15.75;56.32;98701.50;5070595;28;20533;-72
2020/12/30 10:15:07;;;;;;;4.13;1.70;;;;;;;15.80;56.23;98701.31;5070390;28;20399;-72
2020/12/30 10:17:33;;;;;;;5.18;1.60;;;;;;;15.66;55.70;98669.16;5071949;28;20111;-72
2020/12/30 10:19:59;;;;;;;4.22;1.80;;;;;;;15.79;55.89;98683.56;5070259;28;20054;-74
2020/12/30 10:22:24;;;;;;;2.15;1.55;;;;;;;15.78;55.68;98687.41;5070196;28;20471;-73
2020/12/30 10:24:50;;;;;;;5.70;1.65;;;;;;;15.79;55.87;98688.19;5070161;28;20035;-73
2020/12/30 10:27:16;;;;;;;7.78;2.35;;;;;;;15.80;56.45;98679.75;5070384;28;20024;-73
2020/12/30 10:29:42;;;;;;;5.82;2.20;;;;;;;15.67;55.73;98648.38;5070288;28;20124;-73
2020/12/30 10:32:07;;;;;;;4.18;1.75;;;;;;;15.75;55.59;98665.66;5071669;28;20111;-73
2020/12/30 10:34:35;;;;;;;5.30;2.08;;;;;;;15.76;55.93;98651.88;5069954;28;20408;-72
2020/12/30 10:37:01;;;;;;;5.63;2.97;;;;;;;15.81;56.40;98659.78;5071681;28;20086;-73
2020/12/30 10:39:26;;;;;;;8.73;2.53;;;;;;;15.84;56.61;98661.06;5070306;28;20135;-73
2020/12/30 10:41:56;;;;;;;6.28;2.10;;;;;;;15.84;56.34;98651.09;5071008;28;20096;-73
2020/12/30 10:44:23;;;;;;;3.85;1.88;;;;;;;15.82;56.40;98647.09;5069997;28;20077;-72
2020/12/30 10:46:48;;;;;;;7.90;2.40;;;;;;;15.87;56.48;98651.53;5069794;28;20029;-72
2020/12/30 10:49:14;;;;;;;9.63;3.15;;;;;;;15.88;56.73;98651.25;5070954;28;20041;-74
2020/12/30 10:51:39;;;;;;;3.42;1.88;;;;;;;15.91;56.64;98660.59;5071034;28;20078;-72
2020/12/30 10:54:06;;;;;;;4.18;2.63;;;;;;;15.89;56.93;98636.63;5069789;28;20123;-74
2020/12/30 10:56:31;;;;;;;5.28;1.58;;;;;;;16.03;56.38;98635.63;5070984;28;20384;-72
2020/12/30 10:58:56;;;;;;;5.10;2.17;;;;;;;16.10;56.17;98636.75;5070696;28;20093;-72
2020/12/30 11:01:22;;;;;;;2.70;1.80;;;;;;;16.16;55.50;98635.44;5070821;28;20029;-72
2020/12/30 11:03:47;;;;;;;5.72;1.35;;;;;;;16.20;55.56;98635.59;5070912;28;20054;-72
2020/12/30 11:06:13;;;;;;;3.33;1.38;;;;;;;16.22;55.82;98629.88;5069865;28;20150;-72
2020/12/30 11:08:38;;;;;;;5.82;1.85;;;;;;;16.26;55.77;98628.09;5069762;28;20035;-73
2020/12/30 11:11:05;;;;;;;2.55;1.60;;;;;;;16.17;55.74;98617.34;5070520;28;20051;-73
2020/12/30 11:13:32;;;;;;;5.68;2.05;;;;;;;16.23;54.95;98607.94;5071137;28;20028;-73
2020/12/30 11:15:58;;;;;;;4.97;1.80;;;;;;;16.35;54.75;98631.56;5070496;28;20063;-73
2020/12/30 11:18:23;;;;;;;3.65;1.80;;;;;;;16.41;54.93;98630.25;5071047;28;20075;-73
2020/12/30 11:20:49;;;;;;;6.32;2.03;;;;;;;16.47;54.67;98642.44;5070656;28;20476;-73
2020/12/30 11:23:16;;;;;;;4.72;1.98;;;;;;;16.46;54.80;98632.78;5070522;28;20506;-73
2020/12/30 11:25:42;;;;;;;3.40;1.73;;;;;;;16.51;54.15;98618.31;5071120;28;20029;-73
2020/12/30 11:28:08;;;;;;;9.55;2.80;;;;;;;16.56;54.27;98618.09;5069058;28;20035;-73
2020/12/30 11:30:33;;;;;;;5.18;2.20;;;;;;;16.60;53.96;98608.25;5069351;28;20028;-73
2020/12/30 11:32:59;;;;;;;4.18;1.95;;;;;;;16.65;53.95;98618.88;5070297;28;20029;-73
2020/12/30 11:35:25;;;;;;;2.92;1.75;;;;;;;16.61;52.91;98603.63;5070741;28;20399;-73